createdAt,value
2022-10-26T00:02:15.338Z,11.30
2022-10-26T00:04:47.676Z,8.57
2022-10-26T00:07:20.236Z,4.85
2022-10-26T00:09:52.515Z,4.40
2022-10-26T00:12:24.833Z,4.05
2022-10-26T00:14:56.729Z,8.27
2022-10-26T00:17:29.443Z,6.80
2022-10-26T00:20:02.339Z,9.90
2022-10-26T00:22:35.066Z,9.70
2022-10-26T00:25:07.558Z,14.90
2022-10-26T00:27:40.249Z,8.50
2022-10-26T00:30:12.554Z,7.97
2022-10-26T00:32:44.873Z,5.78
2022-10-26T00:35:23.081Z,5.47
2022-10-26T00:37:57.128Z,7.60
2022-10-26T00:40:30.212Z,6.72
2022-10-26T00:43:02.942Z,6.47
2022-10-26T00:45:34.850Z,6.22
2022-10-26T00:48:23.201Z,6.57
2022-10-26T00:50:57.179Z,5.55
2022-10-26T00:53:30.629Z,6.13
2022-10-26T00:56:04.202Z,8.68
2022-10-26T00:58:36.487Z,8.25
2022-10-26T01:01:09.756Z,6.32
2022-10-26T01:03:43.228Z,10.13
2022-10-26T01:06:15.902Z,7.70
2022-10-26T01:08:48.948Z,6.80
2022-10-26T01:11:20.827Z,5.85
2022-10-26T01:13:54.555Z,4.35
2022-10-26T01:16:55.280Z,5.97
2022-10-26T01:19:36.971Z,9.77
2022-10-26T01:22:22.673Z,4.38
2022-10-26T01:25:22.335Z,3.78
2022-10-26T01:27:54.777Z,8.15
2022-10-26T01:30:48.787Z,7.30
2022-10-26T01:33:35.295Z,6.80
2022-10-26T01:36:21.258Z,6.37
2022-10-26T01:38:59.750Z,5.70
2022-10-26T01:41:41.143Z,8.32
2022-10-26T01:44:28.597Z,5.63
2022-10-26T01:47:04.196Z,5.82
2022-10-26T01:49:42.016Z,7.60
2022-10-26T01:52:14.711Z,5.03
2022-10-26T01:54:47.035Z,5.38
2022-10-26T01:57:21.665Z,6.03
2022-10-26T02:00:13.003Z,6.13
2022-10-26T02:03:15.408Z,10.25
2022-10-26T02:06:07.591Z,8.27
2022-10-26T02:09:01.850Z,6.38
2022-10-26T02:11:48.744Z,7.40
2022-10-26T02:14:51.224Z,5.20
2022-10-26T02:17:43.073Z,4.97
2022-10-26T02:20:22.532Z,5.97
2022-10-26T02:22:56.793Z,6.93
2022-10-26T02:25:34.220Z,8.73
2022-10-26T02:28:13.688Z,8.00
2022-10-26T02:30:48.147Z,4.97
2022-10-26T02:33:22.464Z,5.72
2022-10-26T02:35:55.918Z,5.85
2022-10-26T02:38:31.474Z,6.38
2022-10-26T02:41:05.020Z,10.50
2022-10-26T02:43:45.827Z,8.43
2022-10-26T02:46:23.245Z,6.88
2022-10-26T02:48:57.153Z,6.05
2022-10-26T02:51:44.705Z,5.43
2022-10-26T02:54:43.751Z,7.20
2022-10-26T02:57:30.367Z,5.80
2022-10-26T03:00:04.537Z,8.25
2022-10-26T03:02:37.035Z,6.05
2022-10-26T03:05:20.284Z,5.13
2022-10-26T03:07:52.479Z,9.07
2022-10-26T03:10:25.818Z,7.40
2022-10-26T03:12:57.717Z,5.00
2022-10-26T03:15:30.394Z,7.03
2022-10-26T03:18:02.671Z,5.43
2022-10-26T03:20:35.609Z,7.43
2022-10-26T03:23:07.511Z,7.03
2022-10-26T03:25:40.146Z,8.32
2022-10-26T03:28:12.138Z,7.90
2022-10-26T03:30:44.631Z,5.40
2022-10-26T03:33:16.992Z,5.38
2022-10-26T03:35:57.175Z,5.47
2022-10-26T03:38:29.137Z,5.63
2022-10-26T03:41:01.823Z,7.07
2022-10-26T03:43:33.742Z,7.38
2022-10-26T03:46:06.429Z,10.25
2022-10-26T03:48:38.345Z,9.70
2022-10-26T03:51:11.063Z,8.32
2022-10-26T03:53:43.005Z,6.55
2022-10-26T03:56:15.778Z,6.07
2022-10-26T03:58:47.686Z,9.10
2022-10-26T04:01:20.852Z,5.45
2022-10-26T04:03:53.008Z,5.72
2022-10-26T04:06:26.691Z,5.97
2022-10-26T04:09:02.361Z,5.80
2022-10-26T04:11:34.874Z,9.30
2022-10-26T04:14:06.767Z,6.63
2022-10-26T04:16:39.351Z,9.43
2022-10-26T04:19:11.573Z,8.93
2022-10-26T04:21:44.130Z,6.10
2022-10-26T04:24:16.212Z,8.77
2022-10-26T04:26:49.146Z,8.87
2022-10-26T04:29:21.456Z,7.75
2022-10-26T04:31:53.949Z,10.50
2022-10-26T04:34:25.863Z,12.55
2022-10-26T04:36:58.399Z,9.48
2022-10-26T04:39:30.350Z,6.00
2022-10-26T04:42:02.947Z,5.03
2022-10-26T04:44:35.224Z,5.75
2022-10-26T04:47:07.819Z,12.43
2022-10-26T04:49:39.727Z,7.63
2022-10-26T04:52:12.348Z,8.10
2022-10-26T04:54:44.248Z,6.50
2022-10-26T04:57:16.929Z,8.13
2022-10-26T04:59:49.253Z,7.88
2022-10-26T05:02:21.877Z,9.50
2022-10-26T05:04:54.423Z,9.13
2022-10-26T05:07:27.043Z,9.13
2022-10-26T05:09:59.029Z,11.82
2022-10-26T05:12:31.670Z,8.00
2022-10-26T05:15:06.522Z,10.68
2022-10-26T05:17:41.609Z,9.70
2022-10-26T05:20:14.222Z,10.20
2022-10-26T05:22:53.552Z,10.77
2022-10-26T05:25:26.184Z,7.88
2022-10-26T05:28:04.445Z,7.68
2022-10-26T05:30:36.867Z,11.70
2022-10-26T05:33:11.645Z,12.52
2022-10-26T05:35:43.824Z,7.65
2022-10-26T05:38:18.263Z,8.60
2022-10-26T05:40:53.474Z,11.20
2022-10-26T05:43:27.637Z,11.97
2022-10-26T05:45:59.581Z,7.65
2022-10-26T05:48:32.641Z,7.13
2022-10-26T05:51:05.067Z,11.43
2022-10-26T05:53:37.723Z,9.32
2022-10-26T05:56:23.212Z,9.90
2022-10-26T05:58:56.529Z,11.75
2022-10-26T06:02:06.363Z,10.20
2022-10-26T06:04:48.203Z,8.48
2022-10-26T06:07:20.901Z,9.98
2022-10-26T06:09:54.079Z,11.73
2022-10-26T06:12:26.621Z,15.38
2022-10-26T06:14:59.848Z,14.95
2022-10-26T06:18:14.216Z,11.77
2022-10-26T06:21:00.924Z,13.23
2022-10-26T06:24:21.400Z,9.80
2022-10-26T06:26:58.560Z,9.00
2022-10-26T06:30:01.815Z,13.90
2022-10-26T06:32:34.760Z,8.52
2022-10-26T06:35:12.953Z,9.35
2022-10-26T06:37:46.994Z,6.90
2022-10-26T06:40:19.672Z,10.45
2022-10-26T06:42:52.400Z,10.05
2022-10-26T06:45:25.148Z,10.18
2022-10-26T06:48:11.229Z,13.15
2022-10-26T06:50:54.100Z,11.63
2022-10-26T06:54:25.225Z,11.65
2022-10-26T06:56:57.715Z,9.38
2022-10-26T06:59:42.551Z,9.00
2022-10-26T07:02:15.161Z,11.35
2022-10-26T07:04:48.170Z,12.17
2022-10-26T07:07:25.974Z,11.32
2022-10-26T07:09:58.681Z,11.80
2022-10-26T07:12:32.872Z,15.05
2022-10-26T07:17:48.509Z,12.43
2022-10-26T07:20:22.343Z,12.32
2022-10-26T07:22:56.429Z,10.60
2022-10-26T07:25:29.403Z,19.40
2022-10-26T07:28:01.766Z,10.93
2022-10-26T07:30:34.431Z,9.50
2022-10-26T07:33:13.064Z,15.55
2022-10-26T07:35:45.617Z,14.02
2022-10-26T07:38:17.560Z,13.55
2022-10-26T07:40:50.957Z,14.13
2022-10-26T07:43:23.271Z,18.53
2022-10-26T07:45:56.621Z,10.98
2022-10-26T07:48:28.638Z,15.63
2022-10-26T07:51:03.391Z,8.52
2022-10-26T07:53:35.496Z,13.57
2022-10-26T07:56:10.528Z,19.80
2022-10-26T07:58:42.862Z,9.35
2022-10-26T08:01:16.690Z,12.25
2022-10-26T08:03:51.940Z,10.43
2022-10-26T08:06:25.035Z,10.02
2022-10-26T08:08:57.452Z,11.20
2022-10-26T08:11:30.201Z,13.13
2022-10-26T08:14:02.326Z,15.85
2022-10-26T08:16:35.388Z,13.20
2022-10-26T08:19:07.919Z,11.93
2022-10-26T08:21:40.812Z,17.13
2022-10-26T08:24:12.975Z,14.93
2022-10-26T08:26:46.790Z,14.48
2022-10-26T08:29:18.699Z,14.15
2022-10-26T08:31:51.684Z,13.70
2022-10-26T08:34:24.192Z,14.53
2022-10-26T08:36:57.044Z,15.65
2022-10-26T08:39:30.710Z,12.07
2022-10-26T08:42:14.665Z,15.73
2022-10-26T08:44:50.007Z,15.30
2022-10-26T08:47:28.729Z,9.07
2022-10-26T08:50:46.426Z,13.90
2022-10-26T08:53:42.079Z,16.88
2022-10-26T08:56:29.529Z,13.70
2022-10-26T08:59:40.035Z,17.45
2022-10-26T09:02:15.090Z,15.40
2022-10-26T09:04:47.780Z,22.73
2022-10-26T09:08:03.325Z,13.75
2022-10-26T09:10:51.110Z,13.90
2022-10-26T09:13:59.833Z,14.38
2022-10-26T09:16:44.462Z,17.43
2022-10-26T09:19:52.944Z,12.82
2022-10-26T09:22:43.259Z,17.75
2022-10-26T09:25:30.501Z,13.02
2022-10-26T09:28:02.992Z,16.23
2022-10-26T09:30:36.318Z,15.93
2022-10-26T09:33:20.094Z,16.42
2022-10-26T09:36:03.550Z,13.75
2022-10-26T09:38:44.949Z,11.82
2022-10-26T09:41:28.262Z,13.52
2022-10-26T09:44:26.454Z,14.20
2022-10-26T09:47:33.676Z,11.70
2022-10-26T09:50:29.925Z,12.98
2022-10-26T09:53:02.769Z,11.07
2022-10-26T09:55:44.506Z,10.65
2022-10-26T09:58:28.492Z,16.57
2022-10-26T10:01:01.611Z,13.48
2022-10-26T10:03:33.867Z,8.95
2022-10-26T10:06:20.901Z,8.15
2022-10-26T10:09:12.058Z,10.88
2022-10-26T10:12:05.296Z,11.07
2022-10-26T10:14:58.580Z,11.73
2022-10-26T10:17:30.962Z,13.00
2022-10-26T10:20:13.393Z,13.20
2022-10-26T10:23:03.972Z,11.88
2022-10-26T10:25:39.427Z,17.43
2022-10-26T10:28:26.560Z,12.30
2022-10-26T10:31:06.370Z,13.25
2022-10-26T10:33:42.657Z,15.48
2022-10-26T10:36:24.496Z,15.93
2022-10-26T10:38:56.675Z,12.17
2022-10-26T10:41:36.925Z,19.70
2022-10-26T10:44:25.488Z,14.70
2022-10-26T10:47:06.727Z,11.95
2022-10-26T10:49:38.906Z,15.60
2022-10-26T10:52:29.717Z,12.33
2022-10-26T10:55:13.580Z,16.77
2022-10-26T10:57:55.177Z,13.43
2022-10-26T11:00:28.022Z,16.70
2022-10-26T11:03:14.502Z,14.95
2022-10-26T11:06:11.537Z,16.50
2022-10-26T11:09:09.815Z,17.67
2022-10-26T11:11:48.272Z,18.85
2022-10-26T11:14:38.760Z,23.83
2022-10-26T11:17:52.086Z,14.88
2022-10-26T11:20:28.827Z,20.90
2022-10-26T11:23:15.782Z,14.32
2022-10-26T11:25:59.805Z,16.08
2022-10-26T11:28:46.461Z,15.35
2022-10-26T11:31:45.405Z,19.23
2022-10-26T11:34:30.469Z,17.50
2022-10-26T11:37:13.701Z,13.70
2022-10-26T11:39:59.269Z,13.02
2022-10-26T11:42:51.684Z,19.88
2022-10-26T11:45:42.527Z,16.65
2022-10-26T11:48:49.927Z,14.17
2022-10-26T11:51:41.644Z,14.30
2022-10-26T11:54:31.493Z,14.45
2022-10-26T11:57:05.088Z,13.80
2022-10-26T11:59:46.079Z,16.42
2022-10-26T12:02:24.941Z,14.93
2022-10-26T12:05:33.189Z,14.93
2022-10-26T12:08:14.256Z,15.48
2022-10-26T12:10:58.690Z,21.42
2022-10-26T12:13:54.689Z,12.40
2022-10-26T12:16:59.155Z,10.23
2022-10-26T12:20:09.960Z,15.68
2022-10-26T12:22:43.668Z,18.10
2022-10-26T12:25:16.335Z,11.95
2022-10-26T12:30:27.935Z,13.87
2022-10-26T12:33:22.899Z,13.43
2022-10-26T12:35:55.363Z,14.68
2022-10-26T12:38:47.549Z,12.55
2022-10-26T12:41:27.613Z,13.82
2022-10-26T12:44:06.229Z,9.87
2022-10-26T12:46:43.272Z,14.32
2022-10-26T12:49:59.645Z,12.48
2022-10-26T12:52:35.815Z,11.38
2022-10-26T12:55:51.457Z,12.50
2022-10-26T12:58:53.862Z,10.03
2022-10-26T13:01:47.375Z,15.75
2022-10-26T13:04:49.141Z,13.30
2022-10-26T13:07:27.922Z,16.95
2022-10-26T13:10:17.518Z,17.02
2022-10-26T13:13:02.416Z,11.87
2022-10-26T13:15:55.134Z,10.55
2022-10-26T13:18:28.651Z,11.50
2022-10-26T13:21:19.373Z,12.70
2022-10-26T13:23:55.135Z,14.32
2022-10-26T13:26:29.661Z,9.07
2022-10-26T13:29:04.537Z,12.77
2022-10-26T13:31:37.483Z,14.90
2022-10-26T13:34:16.613Z,15.13
2022-10-26T13:37:17.147Z,10.70
2022-10-26T13:39:56.259Z,11.83
2022-10-26T13:42:48.601Z,13.55
2022-10-26T13:45:29.204Z,15.98
2022-10-26T13:48:16.663Z,12.50
2022-10-26T13:53:41.600Z,16.07
2022-10-26T13:56:37.883Z,12.68
2022-10-26T13:59:13.712Z,11.68
2022-10-26T14:01:46.124Z,18.55
2022-10-26T14:04:27.449Z,18.20
2022-10-26T14:06:59.659Z,13.23
2022-10-26T14:09:32.491Z,26.00
2022-10-26T14:12:04.577Z,13.63
2022-10-26T14:14:38.335Z,14.38
2022-10-26T14:17:25.097Z,16.65
2022-10-26T14:19:58.196Z,16.93
2022-10-26T14:22:31.150Z,18.17
2022-10-26T14:25:03.257Z,10.82
2022-10-26T14:27:40.140Z,14.60
2022-10-26T14:30:34.022Z,12.10
2022-10-26T14:33:20.619Z,17.23
2022-10-26T14:35:54.056Z,15.48
2022-10-26T14:38:31.066Z,16.30
2022-10-26T14:41:04.349Z,14.48
2022-10-26T14:43:37.148Z,13.60
2022-10-26T14:46:17.885Z,11.43
2022-10-26T14:48:59.851Z,12.77
2022-10-26T14:51:36.041Z,13.32
2022-10-26T14:54:25.097Z,13.68
2022-10-26T14:56:58.013Z,13.57
2022-10-26T14:59:32.208Z,13.13
2022-10-26T15:02:20.070Z,14.60
2022-10-26T15:05:19.912Z,11.35
2022-10-26T15:07:53.759Z,22.40
2022-10-26T15:10:37.812Z,11.82
2022-10-26T15:13:22.886Z,18.03
2022-10-26T15:15:58.546Z,13.05
2022-10-26T15:18:35.448Z,10.55
2022-10-26T15:21:45.833Z,13.57
2022-10-26T15:24:21.827Z,11.40
2022-10-26T15:26:54.218Z,10.83
2022-10-26T15:29:49.610Z,12.02
2022-10-26T15:32:33.177Z,12.65
2022-10-26T15:35:12.484Z,10.57
2022-10-26T15:37:45.075Z,12.73
2022-10-26T15:40:18.894Z,11.53
2022-10-26T15:42:53.895Z,15.25
2022-10-26T15:45:31.141Z,16.17
2022-10-26T15:48:25.763Z,12.95
2022-10-26T15:50:58.592Z,10.57
2022-10-26T15:53:31.518Z,17.83
2022-10-26T15:56:12.233Z,15.82
2022-10-26T15:58:45.608Z,19.95
2022-10-26T16:01:23.737Z,14.30
2022-10-26T16:03:57.992Z,13.77
2022-10-26T16:06:39.670Z,18.13
2022-10-26T16:09:18.445Z,13.02
2022-10-26T16:11:51.439Z,14.10
2022-10-26T16:14:23.777Z,15.93
2022-10-26T16:16:59.586Z,9.43
2022-10-26T16:19:31.826Z,12.90
2022-10-26T16:22:05.008Z,18.45
2022-10-26T16:24:36.957Z,16.95
2022-10-26T16:27:10.130Z,14.27
2022-10-26T16:29:42.536Z,11.77
2022-10-26T16:32:15.304Z,9.30
2022-10-26T16:34:47.605Z,12.35
2022-10-26T16:37:20.303Z,15.40
2022-10-26T16:39:52.667Z,14.48
2022-10-26T16:42:25.769Z,15.77
2022-10-26T16:45:01.693Z,11.87
2022-10-26T16:47:37.331Z,13.93
2022-10-26T16:50:12.219Z,19.42
2022-10-26T16:52:45.499Z,14.50
2022-10-26T16:55:18.542Z,18.98
2022-10-26T16:57:51.965Z,16.07
2022-10-26T17:00:24.695Z,12.25
2022-10-26T17:02:57.396Z,16.45
2022-10-26T17:05:29.819Z,11.45
2022-10-26T17:08:02.534Z,13.43
2022-10-26T17:10:34.802Z,17.23
2022-10-26T17:13:07.598Z,20.52
2022-10-26T17:15:39.948Z,15.02
2022-10-26T17:18:12.076Z,9.95
2022-10-26T17:20:52.207Z,14.52
2022-10-26T17:23:25.378Z,13.40
2022-10-26T17:26:05.670Z,11.48
2022-10-26T17:28:38.309Z,15.43
2022-10-26T17:31:13.710Z,14.30
2022-10-26T17:33:50.745Z,12.80
2022-10-26T17:36:25.532Z,13.17
2022-10-26T17:38:58.727Z,14.63
2022-10-26T17:41:31.464Z,20.27
2022-10-26T17:44:04.517Z,12.27
2022-10-26T17:46:36.822Z,16.92
2022-10-26T17:49:10.007Z,14.60
2022-10-26T17:51:42.286Z,14.73
2022-10-26T17:56:54.094Z,13.20
2022-10-26T17:59:26.211Z,14.35
2022-10-26T18:02:00.802Z,9.80
2022-10-26T18:04:32.754Z,17.00
2022-10-26T18:07:05.884Z,15.63
2022-10-26T18:09:37.861Z,17.23
2022-10-26T18:12:11.335Z,17.60
2022-10-26T18:14:43.268Z,15.17
2022-10-26T18:17:16.024Z,12.35
2022-10-26T18:19:48.736Z,10.75
2022-10-26T18:22:21.487Z,14.23
2022-10-26T18:24:53.368Z,12.90
2022-10-26T18:27:27.058Z,16.13
2022-10-26T18:29:59.328Z,16.33
2022-10-26T18:32:32.093Z,13.35
2022-10-26T18:35:04.365Z,12.30
2022-10-26T18:37:36.350Z,12.77
2022-10-26T18:40:09.735Z,11.77
2022-10-26T18:42:41.686Z,17.33
2022-10-26T18:45:14.524Z,11.18
2022-10-26T18:47:46.397Z,16.05
2022-10-26T18:50:19.148Z,12.57
2022-10-26T18:52:51.355Z,12.40
2022-10-26T18:55:23.707Z,8.02
2022-10-26T18:57:57.440Z,15.27
2022-10-26T19:00:29.761Z,15.07
2022-10-26T19:03:01.645Z,13.93
2022-10-26T19:05:35.812Z,20.77
2022-10-26T19:08:11.835Z,14.60
2022-10-26T19:10:44.562Z,14.50
2022-10-26T19:13:16.478Z,12.30
2022-10-26T19:15:59.959Z,13.13
2022-10-26T19:18:32.866Z,12.30
2022-10-26T19:21:14.658Z,12.40
2022-10-26T19:23:50.682Z,9.88
2022-10-26T19:26:30.635Z,13.48
2022-10-26T19:29:07.700Z,14.82
2022-10-26T19:31:39.585Z,16.87
2022-10-26T19:34:14.251Z,17.83
2022-10-26T19:36:47.585Z,11.38
2022-10-26T19:39:19.607Z,12.80
2022-10-26T19:41:52.778Z,11.52
2022-10-26T19:44:25.720Z,15.30
2022-10-26T19:46:58.158Z,12.27
2022-10-26T19:49:30.407Z,14.93
2022-10-26T19:52:03.941Z,15.90
2022-10-26T19:54:36.761Z,10.70
2022-10-26T19:57:09.528Z,12.90
2022-10-26T19:59:41.957Z,12.32
2022-10-26T20:02:14.638Z,10.50
2022-10-26T20:04:47.703Z,13.43
2022-10-26T20:07:20.567Z,11.32
2022-10-26T20:09:52.886Z,9.67
2022-10-26T20:12:25.595Z,12.55
2022-10-26T20:14:57.916Z,12.63
2022-10-26T20:17:30.294Z,13.30
2022-10-26T20:20:03.019Z,14.98
2022-10-26T20:22:35.763Z,14.20
2022-10-26T20:25:08.028Z,20.67
2022-10-26T20:27:42.277Z,12.23
2022-10-26T20:30:14.465Z,11.18
2022-10-26T20:32:46.350Z,12.07
2022-10-26T20:35:19.104Z,20.03
2022-10-26T20:37:52.460Z,8.73
2022-10-26T20:40:25.771Z,10.35
2022-10-26T20:42:58.545Z,11.95
2022-10-26T20:45:32.336Z,23.23
2022-10-26T20:48:05.802Z,13.83
2022-10-26T20:50:38.524Z,11.05
2022-10-26T20:53:39.594Z,9.98
2022-10-26T20:56:25.851Z,13.98
2022-10-26T20:59:01.550Z,8.30
2022-10-26T21:01:35.246Z,13.80
2022-10-26T21:04:08.842Z,13.20
2022-10-26T21:06:41.533Z,11.60
2022-10-26T21:09:13.432Z,13.02
2022-10-26T21:11:46.210Z,10.27
2022-10-26T21:14:18.531Z,8.70
2022-10-26T21:16:50.497Z,12.25
2022-10-26T21:19:23.673Z,10.18
2022-10-26T21:21:56.007Z,12.27
2022-10-26T21:24:28.785Z,12.73
2022-10-26T21:27:00.706Z,9.60
2022-10-26T21:29:33.826Z,12.02
2022-10-26T21:32:06.015Z,9.18
2022-10-26T21:34:38.713Z,7.22
2022-10-26T21:37:11.005Z,10.57
2022-10-26T21:39:43.346Z,9.05
2022-10-26T21:42:15.659Z,14.00
2022-10-26T21:44:48.080Z,8.38
2022-10-26T21:47:20.232Z,8.88
2022-10-26T21:49:52.957Z,7.80
2022-10-26T21:52:25.483Z,10.87
2022-10-26T21:54:58.335Z,9.98
2022-10-26T21:57:31.079Z,8.52
2022-10-26T22:00:03.624Z,7.68
2022-10-26T22:02:45.588Z,11.85
2022-10-26T22:05:17.496Z,7.70
2022-10-26T22:07:50.034Z,11.77
2022-10-26T22:10:23.007Z,8.65
2022-10-26T22:12:55.809Z,8.57
2022-10-26T22:15:28.201Z,8.07
2022-10-26T22:18:00.094Z,6.40
2022-10-26T22:20:32.883Z,8.27
2022-10-26T22:25:42.505Z,8.23
2022-10-26T22:28:15.229Z,10.20
2022-10-26T22:30:47.130Z,8.88
2022-10-26T22:33:20.242Z,10.63
2022-10-26T22:35:54.328Z,6.93
2022-10-26T22:38:26.312Z,7.57
2022-10-26T22:40:59.400Z,10.15
2022-10-26T22:43:31.917Z,7.78
2022-10-26T22:46:10.337Z,10.05
2022-10-26T22:48:45.326Z,17.65
2022-10-26T22:51:20.147Z,9.75
2022-10-26T22:53:57.517Z,8.27
2022-10-26T22:56:32.287Z,8.33
2022-10-26T22:59:06.141Z,9.77
2022-10-26T23:01:42.116Z,7.38
2022-10-26T23:04:14.801Z,5.40
2022-10-26T23:06:46.669Z,8.27
2022-10-26T23:09:19.518Z,7.05
2022-10-26T23:11:52.229Z,7.20
2022-10-26T23:14:24.590Z,4.88
2022-10-26T23:16:56.911Z,9.95
2022-10-26T23:19:28.775Z,7.10
2022-10-26T23:22:01.494Z,10.05
2022-10-26T23:24:33.814Z,9.40
2022-10-26T23:27:06.188Z,7.95
2022-10-26T23:29:38.982Z,7.97
2022-10-26T23:32:11.345Z,7.68
2022-10-26T23:34:43.661Z,9.88
2022-10-26T23:37:15.575Z,10.05
2022-10-26T23:39:48.277Z,6.28
2022-10-26T23:42:20.599Z,7.15
2022-10-26T23:44:52.896Z,5.72
2022-10-26T23:47:24.785Z,7.25
2022-10-26T23:49:57.962Z,8.60
2022-10-26T23:52:30.308Z,6.47
2022-10-26T23:55:02.172Z,9.55
2022-10-26T23:57:34.915Z,4.68
